Flight Track Log - Related Links

Times and Time Zones

All times are in EDT time to prevent confusion due to time zone crossing. See the XOJ538 flight status page for this flight to view local times or setup timezone preferences in your user account.

Time Position Orientation Groundspeed Altitude Reporting Facility
EDT Latitude Longitude Course Direction KTS MPH feet Rate Location/Type
Tue 06:17:21 PM 34.1772 -118.3592 230° Southwest 162 186 2,200  Level Los Angeles Center
Tue 06:18:23 PM 34.1506 -118.3978 230° Southwest 186 214 4,700 2,419 Climbing Los Angeles Center
Tue 06:19:25 PM 34.1864 -118.4669 302° West 249 287 7,200 2,559 Climbing Los Angeles Center
Tue 06:20:39 PM 34.2975 -118.4642 North 285 328 10,500 2,715 Climbing Los Angeles Center
Tue 06:21:42 PM 34.4025 -118.4319 14° North 346 398 13,400 2,544 Climbing Los Angeles Center
Tue 06:22:44 PM 34.4578 -118.3353 55° Northeast 352 405 15,800 2,177 Climbing Los Angeles Center
Tue 06:23:46 PM 34.4925 -118.2161 71° East 371 427 17,900 2,129 Climbing Los Angeles Center
Tue 06:24:48 PM 34.5328 -118.0806 70° East 390 449 20,200 2,129 Climbing Los Angeles Center
Tue 06:25:50 PM 34.5708 -117.9550 70° East 398 458 22,300 1,790 Climbing Los Angeles Center
Tue 06:26:52 PM 34.6089 -117.8247 70° East 411 473 23,900 1,500 Climbing Los Angeles Center
Tue 06:27:54 PM 34.6469 -117.6906 71° East 422 486 25,400 1,790 Climbing Los Angeles Center
Tue 06:28:56 PM 34.7006 -117.5267 68° East 438 504 27,600 1,839 Climbing Los Angeles Center
Tue 06:29:58 PM 34.7447 -117.3903 68° East 439 505 29,200 1,355 Climbing Los Angeles Center
Tue 06:31:00 PM 34.7903 -117.2511 68° East 445 512 30,400 1,065 Climbing Los Angeles Center
Tue 06:32:02 PM 34.8367 -117.1067 69° East 457 526 31,400 871 Climbing Los Angeles Center
Tue 06:33:04 PM 34.8919 -116.9622 65° Northeast 467 537 32,200 871 Climbing Los Angeles Center
Tue 06:34:06 PM 34.9967 -116.8081 50° Northeast 492 566 33,200 1,113 Climbing Los Angeles Center
Tue 06:35:08 PM 35.0850 -116.6775 50° Northeast 500 575 34,500 1,059 Climbing Los Angeles Center
Tue 06:36:22 PM 35.1703 -116.5486 51° Northeast 494 568 35,600 1,139 Climbing Los Angeles Center
Tue 06:37:25 PM 35.2736 -116.3953 50° Northeast 488 562 37,100 1,440 Climbing Los Angeles Center
Tue 06:38:27 PM 35.3589 -116.2667 51° Northeast 488 562 38,600 1,355 Climbing Los Angeles Center
Tue 06:39:29 PM 35.4553 -116.1156 52° Northeast 475 547 39,900 971 Climbing Los Angeles Center
Tue 06:40:43 PM 35.5408 -115.9911 50° Northeast 477 549 40,800 750 Climbing Los Angeles Center
Tue 06:41:45 PM 35.6417 -115.8336 52° Northeast 473 544 41,600 629 Climbing Los Angeles Center
Tue 06:42:47 PM 35.7244 -115.7086 51° Northeast 473 544 42,100 484 Climbing Los Angeles Center
Tue 06:43:49 PM 35.8064 -115.5822 51° Northeast 475 547 42,600 435 Climbing Los Angeles Center
Tue 06:44:51 PM 35.8872 -115.4575 51° Northeast 470 541 43,000 194 Climbing Los Angeles Center
Tue 06:45:53 PM 35.9853 -115.3061 51° Northeast 474 545 43,000  Level Los Angeles Center
Tue 06:46:55 PM 36.0486 -115.2086 51° Northeast 463 533 43,000  Level Los Angeles Center
Tue 06:47:58 PM 36.1164 -115.0342 64° Northeast 472 543 43,000  Level Los Angeles Center
Tue 06:49:00 PM 36.1628 -114.8856 69° East 468 539 43,000  Level Los Angeles Center
Tue 06:50:01 PM 36.2000 -114.7653 69° East 469 540 43,000  Level Los Angeles Center
Tue 06:51:04 PM 36.2644 -114.5531 69° East 470 541 43,000  Level Los Angeles Center
Tue 06:52:06 PM 36.3244 -114.4075 63° Northeast 474 545 43,000  Level Los Angeles Center
Tue 06:53:20 PM 36.3844 -114.2639 63° Northeast 470 541 43,000  Level Los Angeles Center
Tue 06:54:23 PM 36.4883 -114.1114 50° Northeast 479 551 43,000  Level Los Angeles Center
Tue 06:55:24 PM 36.5550 -114.0108 50° Northeast 478 550 43,000  Level Los Angeles Center
Tue 06:56:27 PM 36.6739 -113.8317 50° Northeast 480 552 43,000  Level Los Angeles Center
Tue 06:57:29 PM 36.7531 -113.6961 54° Northeast 482 555 43,000  Level Los Angeles Center
Tue 06:58:31 PM 36.8208 -113.5522 59° Northeast 482 555 43,000  Level Los Angeles Center
Tue 06:59:33 PM 36.8817 -113.4033 63° Northeast 481 554 43,000  Level Los Angeles Center
Tue 07:00:35 PM 36.9372 -113.2522 65° Northeast 481 554 43,000  Level Los Angeles Center
Tue 07:01:37 PM 36.9925 -113.1019 65° Northeast 479 551 43,000  Level Los Angeles Center
Tue 07:02:40 PM 37.0581 -112.9208 66° East 479 551 43,000  Level Los Angeles Center
Tue 07:03:42 PM 37.1144 -112.7694 65° Northeast 482 555 43,000  Level Los Angeles Center
Tue 07:04:44 PM 37.1683 -112.6189 66° East 480 552 43,000  Level Los Angeles Center
Tue 07:05:46 PM 37.2228 -112.4675 66° East 480 552 43,000  Level Los Angeles Center
Tue 07:06:48 PM 37.2894 -112.2831 66° East 487 560 43,000  Level Los Angeles Center
Tue 07:07:50 PM 37.3436 -112.1306 66° East 484 557 43,000  Level Los Angeles Center
Tue 07:08:52 PM 37.3994 -111.9756 66° East 488 562 43,000  Level Los Angeles Center
Tue 07:09:54 PM 37.4542 -111.8203 66° East 488 562 43,000  Level Los Angeles Center
Tue 07:10:36 PM 37.4956 -111.6953 67° East 490 564 43,000  Level Denver Center
Tue 07:11:38 PM 37.5511 -111.5408 66° East 486 559 43,000  Level Denver Center
Tue 07:12:40 PM 37.6050 -111.3853 66° East 486 559 43,000  Level Denver Center
Tue 07:13:42 PM 37.6592 -111.2306 66° East 485 558 43,000  Level Denver Center
Tue 07:14:44 PM 37.7125 -111.0761 66° East 482 555 43,000  Level Denver Center
Tue 07:15:46 PM 37.7642 -110.9211 67° East 481 554 43,000  Level Denver Center
Tue 07:17:00 PM 37.8278 -110.7369 66° East 479 551 43,000  Level Denver Center
Tue 07:18:03 PM 37.8911 -110.5494 67° East 483 556 43,000 144 Level Denver Center
Tue 07:19:05 PM 37.9456 -110.3881 67° East 479 551 43,300 387 Climbing Denver Center
Tue 07:20:07 PM 37.9950 -110.2403 67° East 477 549 43,800 484 Climbing Denver Center
Tue 07:21:09 PM 38.0503 -110.0736 67° East 471 542 44,300 484 Climbing Denver Center
Tue 07:22:11 PM 38.0978 -109.9297 67° East 463 533 44,800 339 Climbing Denver Center
Tue 07:23:13 PM 38.1525 -109.7642 67° East 458 527 45,000 88 Climbing Denver Center
Tue 07:24:28 PM 38.1983 -109.6183 68° East 463 533 45,000  Level Denver Center
Tue 07:25:29 PM 38.2619 -109.4242 67° East 466 536 45,000  Level Denver Center
Tue 07:26:31 PM 38.3181 -109.2525 67° East 472 543 45,000  Level Denver Center
Tue 07:27:33 PM 38.3661 -109.1033 68° East 475 547 45,000  Level Denver Center
Tue 07:28:35 PM 38.4214 -108.9306 68° East 473 544 45,000  Level Denver Center
Tue 07:29:37 PM 38.4689 -108.7797 68° East 478 550 45,000  Level Denver Center
Tue 07:30:39 PM 38.5233 -108.6058 68° East 475 547 45,000  Level Denver Center
Tue 07:31:42 PM 38.5697 -108.4578 68° East 473 544 45,000  Level Denver Center
Tue 07:32:44 PM 38.6167 -108.3078 68° East 475 547 45,000  Level Denver Center
Tue 07:33:46 PM 38.6711 -108.1331 68° East 475 547 45,000  Level Denver Center
Tue 07:34:48 PM 38.7178 -107.9822 68° East 477 549 45,000  Level Denver Center
Tue 07:35:50 PM 38.7719 -107.8064 68° East 477 549 45,000  Level Denver Center
Tue 07:36:52 PM 38.8189 -107.6544 68° East 479 551 45,000  Level Denver Center
Tue 07:37:54 PM 38.8711 -107.4781 69° East 475 547 45,000  Level Denver Center
Tue 07:38:56 PM 38.9181 -107.3247 68° East 481 554 45,000  Level Denver Center
Tue 07:39:58 PM 38.9717 -107.1472 69° East 479 551 45,000  Level Denver Center
Tue 07:41:00 PM 39.0158 -106.9956 69° East 475 547 45,000  Level Denver Center
Tue 07:42:02 PM 39.0683 -106.8167 69° East 478 550 45,000  Level Denver Center
Tue 07:43:04 PM 39.1125 -106.6622 70° East 479 551 45,000  Level Denver Center
Tue 07:44:06 PM 39.1664 -106.4822 69° East 482 555 45,000  Level Denver Center
Tue 07:45:08 PM 39.2108 -106.3275 70° East 482 555 45,000  Level Denver Center
Tue 07:46:10 PM 39.2644 -106.1456 69° East 486 559 45,000  Level Denver Center
Tue 07:47:12 PM 39.3139 -105.9772 69° East 485 558 45,000  Level Denver Center
Tue 07:48:14 PM 39.3589 -105.8142 70° East 485 558 45,000  Level Denver Center
Tue 07:49:16 PM 39.4044 -105.6503 70° East 485 558 45,000  Level Denver Center
Tue 07:50:18 PM 39.4547 -105.4847 68° East 487 560 45,000  Level Denver Center
Tue 07:51:20 PM 39.4989 -105.3211 71° East 485 558 45,000  Level Denver Center
Tue 07:52:22 PM 39.5442 -105.1564 70° East 479 551 45,000  Level Denver Center
Tue 07:53:24 PM 39.5983 -104.9578 70° East 486 559 45,000  Level Denver Center
Tue 07:54:26 PM 39.6411 -104.7947 71° East 509 586 45,000  Level Denver Center
Tue 07:55:28 PM 39.6961 -104.6108 69° East 503 579 45,000  Level Denver Center
Tue 07:56:30 PM 39.7325 -104.4361 75° East 498 573 45,000  Level Denver Center
Tue 07:57:32 PM 39.7697 -104.2644 74° East 486 559 45,000  Level Denver Center
Tue 07:58:34 PM 39.7994 -104.1258 74° East 494 568 45,000  Level Denver Center
Tue 07:59:38 PM 39.8439 -103.9233 74° East 483 556 45,000  Level Denver Center
Tue 08:00:40 PM 39.8817 -103.7506 74° East 492 566 45,000  Level Denver Center
Tue 08:01:42 PM 39.9261 -103.5494 74° East 483 556 45,000  Level Denver Center
Tue 08:02:44 PM 39.9622 -103.3800 74° East 487 560 45,000  Level Denver Center
Tue 08:03:46 PM 39.9969 -103.2092 75° East 488 562 45,000  Level Denver Center
Tue 08:04:48 PM 40.0342 -103.0392 74° East 489 563 45,000  Level Denver Center
Tue 08:05:50 PM 40.0689 -102.8675 75° East 490 564 45,000  Level Denver Center
Tue 08:06:52 PM 40.1106 -102.6728 74° East 490 564 45,000  Level Denver Center
Tue 08:07:54 PM 40.1433 -102.5069 75° East 493 567 45,000  Level Denver Center
Tue 08:08:56 PM 40.1817 -102.3147 75° East 490 564 45,000  Level Denver Center
Tue 08:09:58 PM 40.2347 -102.1575 66° East 489 563 45,000  Level Denver Center
Tue 08:11:00 PM 40.3050 -101.9800 63° Northeast 493 567 45,000  Level Denver Center
Tue 08:12:02 PM 40.3642 -101.8269 63° Northeast 493 567 45,000  Level Denver Center
Tue 08:13:04 PM 40.4331 -101.6467 63° Northeast 495 570 45,000  Level Denver Center
Tue 08:14:06 PM 40.4922 -101.4925 63° Northeast 494 568 45,000  Level Denver Center
Tue 08:15:08 PM 40.5600 -101.3117 64° Northeast 495 570 45,000  Level Denver Center
Tue 08:16:10 PM 40.6175 -101.1567 64° Northeast 494 568 45,000  Level Denver Center
Tue 08:17:12 PM 40.6844 -100.9758 64° Northeast 493 567 45,000  Level Denver Center
Tue 08:18:14 PM 40.7458 -100.8147 63° Northeast 496 571 45,000  Level Denver Center
Tue 08:19:16 PM 40.7969 -100.6672 65° Northeast 502 578 45,000  Level Denver Center
Tue 08:20:18 PM 40.8561 -100.5142 63° Northeast 498 573 45,000  Level Denver Center
Tue 08:21:20 PM 40.9328 -100.3072 64° Northeast 494 568 45,000  Level Denver Center
Tue 08:22:22 PM 40.9894 -100.1508 64° Northeast 494 568 45,000  Level Denver Center
Tue 08:23:24 PM 41.0561 -99.9683 64° Northeast 494 568 45,000  Level Denver Center
Tue 08:24:38 PM 41.1122 -99.8122 64° Northeast 491 565 45,000  Level Denver Center
Tue 08:25:40 PM 41.1861 -99.6044 65° Northeast 489 563 45,000  Level Denver Center
Tue 08:26:42 PM 41.2408 -99.4503 65° Northeast 485 558 45,000  Level Denver Center
Tue 08:27:44 PM 41.3075 -99.2603 65° Northeast 486 559 45,000  Level Denver Center
Tue 08:28:46 PM 41.3656 -99.0956 65° Northeast 487 560 45,000  Level Denver Center
Tue 08:29:48 PM 41.4233 -98.9308 65° Northeast 485 558 45,000  Level Denver Center
Tue 08:30:38 PM 41.4603 -98.8197 66° East 485 558 45,000  Level Minneapolis Center
Tue 08:31:40 PM 41.5275 -98.6250 65° Northeast 483 556 45,000  Level Minneapolis Center
Tue 08:32:42 PM 41.5811 -98.4700 65° Northeast 484 557 45,000  Level Minneapolis Center
Tue 08:33:44 PM 41.6372 -98.3067 65° Northeast 485 558 45,000  Level Minneapolis Center
Tue 08:34:46 PM 41.6914 -98.1433 66° East 481 554 45,000  Level Minneapolis Center
Tue 08:35:48 PM 41.7503 -97.9706 65° Northeast 485 558 45,000  Level Minneapolis Center
Tue 08:36:50 PM 41.8061 -97.8039 66° East 488 562 45,000  Level Minneapolis Center
Tue 08:37:52 PM 41.8717 -97.6053 66° East 486 559 45,000  Level Minneapolis Center
Tue 08:38:54 PM 41.9264 -97.4383 66° East 487 560 45,000  Level Minneapolis Center
Tue 08:39:56 PM 41.9814 -97.2706 66° East 488 562 45,000  Level Minneapolis Center
Tue 08:40:58 PM 42.0361 -97.1033 66° East 489 563 45,000  Level Minneapolis Center
Tue 08:42:01 PM 42.0903 -96.9344 67° East 489 563 45,000  Level Minneapolis Center
Tue 08:43:03 PM 42.1450 -96.7644 66° East 494 568 45,000  Level Minneapolis Center
Tue 08:44:05 PM 42.1994 -96.5942 67° East 493 567 45,000  Level Minneapolis Center
Tue 08:45:07 PM 42.2636 -96.3897 67° East 492 566 45,000  Level Minneapolis Center
Tue 08:46:09 PM 42.3172 -96.2200 67° East 491 565 45,000  Level Minneapolis Center
Tue 08:47:10 PM 42.3606 -96.0825 67° East 492 566 45,000  Level Minneapolis Center
Tue 08:48:13 PM 42.4236 -95.8750 68° East 493 567 45,000  Level Minneapolis Center
Tue 08:49:15 PM 42.4767 -95.7053 67° East 490 564 45,000  Level Minneapolis Center
Tue 08:50:17 PM 42.5286 -95.5333 68° East 492 566 45,000  Level Minneapolis Center
Tue 08:51:19 PM 42.5806 -95.3633 67° East 488 562 45,000  Level Minneapolis Center
Tue 08:52:21 PM 42.6428 -95.1611 67° East 485 558 45,000  Level Minneapolis Center
Tue 08:53:23 PM 42.6939 -94.9919 68° East 484 557 45,000  Level Minneapolis Center
Tue 08:54:25 PM 42.7436 -94.8244 68° East 487 560 45,000  Level Minneapolis Center
Tue 08:55:27 PM 42.7931 -94.6569 68° East 483 556 45,000  Level Minneapolis Center
Tue 08:56:29 PM 42.8456 -94.4808 68° East 494 568 45,000  Level Minneapolis Center
Tue 08:57:31 PM 42.8939 -94.3097 69° East 493 567 45,000  Level Minneapolis Center
Tue 08:58:34 PM 42.9528 -94.1033 69° East 490 564 45,000  Level Minneapolis Center
Tue 08:59:36 PM 43.0039 -93.9303 68° East 493 567 45,000  Level Minneapolis Center
Tue 09:00:42 PM 43.0517 -93.7589 69° East 490 564 45,000  Level Minneapolis Center
Tue 09:01:44 PM 43.1117 -93.5514 68° East 492 566 45,000  Level Minneapolis Center
Tue 09:02:46 PM 43.1597 -93.3781 69° East 491 565 45,000  Level Minneapolis Center
Tue 09:03:48 PM 43.2078 -93.2053 69° East 490 564 45,000  Level Minneapolis Center
Tue 09:04:50 PM 43.2583 -93.0328 68° East 491 565 45,000  Level Minneapolis Center
Tue 09:05:52 PM 43.3056 -92.8586 70° East 490 564 45,000  Level Minneapolis Center
Tue 09:06:54 PM 43.3619 -92.6494 70° East 490 564 45,000  Level Minneapolis Center
Tue 09:07:56 PM 43.4106 -92.4758 69° East 489 563 45,000  Level Minneapolis Center
Tue 09:08:58 PM 43.4581 -92.3006 69° East 491 565 45,000  Level Minneapolis Center
Tue 09:10:00 PM 43.5061 -92.1253 69° East 492 566 45,000  Level Minneapolis Center
Tue 09:11:03 PM 43.5531 -91.9458 70° East 498 573 45,000  Level Minneapolis Center
Tue 09:12:05 PM 43.5989 -91.7706 70° East 490 564 45,000  Level Minneapolis Center
Tue 09:13:07 PM 43.6550 -91.5603 70° East 490 564 45,000  Level Minneapolis Center
Tue 09:14:09 PM 43.7008 -91.3847 70° East 488 562 45,000  Level Minneapolis Center
Tue 09:15:11 PM 43.7478 -91.2083 70° East 490 564 45,000  Level Minneapolis Center
Tue 09:16:13 PM 43.7928 -91.0300 71° East 493 567 45,000  Level Minneapolis Center
Tue 09:17:15 PM 43.8386 -90.8497 71° East 497 572 45,000 -391 Level Minneapolis Center
Tue 09:18:31 PM 43.8922 -90.6342 71° East 497 572 44,100 -1,511 Descending Minneapolis Center
Tue 09:19:34 PM 43.9508 -90.3939 71° East 503 579 41,500 -2,208 Descending Minneapolis Center
Tue 09:20:36 PM 43.9972 -90.2103 71° East 503 579 39,500 -2,274 Descending Minneapolis Center
Tue 09:21:38 PM 44.0397 -90.0283 72° East 497 572 36,800 -2,710 Descending Minneapolis Center
Tue 09:22:40 PM 44.0842 -89.8494 71° East 493 567 33,900 -2,516 Descending Minneapolis Center
Tue 09:23:42 PM 44.1200 -89.6989 72° East 492 566 31,600 -2,710 Descending Minneapolis Center
Tue 09:24:44 PM 44.2072 -89.5258 55° Northeast 471 542 28,300 -3,194 Descending Minneapolis Center
Tue 09:25:46 PM 44.3039 -89.3650 50° Northeast 462 532 25,000 -2,952 Descending Minneapolis Center
Tue 09:26:48 PM 44.3833 -89.2378 49° Northeast 446 513 22,200 -2,710 Descending Minneapolis Center
Tue 09:27:50 PM 44.4606 -89.1139 49° Northeast 431 496 19,400 -2,758 Descending Minneapolis Center
Tue 09:28:52 PM 44.5350 -88.9958 48° Northeast 406 467 16,500 -2,710 Descending Minneapolis Center
Tue 09:29:54 PM 44.6022 -88.8900 48° Northeast 370 426 13,800 -2,177 Descending Minneapolis Center
Tue 09:30:56 PM 44.6622 -88.7989 47° Northeast 327 376 12,000 -871 Descending Minneapolis Center
Tue 09:31:58 PM 44.6842 -88.6758 76° East 314 361 12,000 -774 Level Minneapolis Center
Tue 09:33:00 PM 44.6311 -88.5728 126° Southeast 324 373 10,400 -1,790 Descending Minneapolis Center
Tue 09:34:02 PM 44.5794 -88.4769 127° Southeast 311 358 8,300 -1,324 Descending Minneapolis Center
Tue 09:35:16 PM 44.5286 -88.4056 135° Southeast 263 303 7,400 -1,368 Descending Minneapolis Center
Tue 09:36:18 PM 44.4572 -88.3219 140° Southeast 249 287 5,200 -1,161 Descending Minneapolis Center
Tue 09:37:20 PM 44.4086 -88.2644 140° Southeast 236 272 5,000 -435 Descending Minneapolis Center
Tue 09:38:22 PM 44.3803 -88.1992 121° Southeast 205 236 4,300 -1,220 Descending Minneapolis Center
Tue 09:39:23 PM 44.3875 -88.1458 79° East 194 223 2,500 -1,122 Descending Minneapolis Center
Tue 09:40:25 PM 44.4339 -88.1283 15° North 168 193 2,000 -484 Descending Minneapolis Center
Tue 09:42:00 PM 44.4833 -88.1167 North  Level FlightAware Approximate

Login

Don't have an account? Register now (free) for customized features, flight alerts, and more!